Time;durP1;ratioP1;P1;durP2;ratioP2;P2;SDS_P1;SDS_P2;PMS_P1;PMS_P2;Temp;Humidity;BMP_temperature;BMP_pressure;BME280_temperature;BME280_humidity;BME280_pressure;Samples;Min_cycle;Max_cycle;Signal;HPM_P1;HPM_P2
2023/09/19 00:00:28;;;;;;;10.57;4.25;;;;;;;22.34;100.00;99822.66;5588944;31;34221;-73
2023/09/19 00:03:31;;;;;;;9.18;4.30;;;;;;;22.36;100.00;99822.41;5588786;31;34099;-73
2023/09/19 00:06:35;;;;;;;15.50;5.07;;;;;;;22.32;100.00;99822.09;5589010;31;34021;-73
2023/09/19 00:09:38;;;;;;;13.23;5.05;;;;;;;22.37;100.00;99815.91;5588738;31;34023;-72
2023/09/19 00:12:43;;;;;;;14.77;4.32;;;;;;;22.33;100.00;99817.50;5588617;31;34159;-72
2023/09/19 00:15:50;;;;;;;10.55;4.87;;;;;;;22.29;100.00;99824.50;5588700;31;34730;-72
2023/09/19 00:18:53;;;;;;;18.90;5.12;;;;;;;22.30;100.00;99820.72;5588545;31;34075;-72
2023/09/19 00:21:56;;;;;;;15.80;4.78;;;;;;;22.22;100.00;99818.50;5588477;31;34821;-73
2023/09/19 00:25:01;;;;;;;19.83;4.90;;;;;;;22.17;100.00;99815.75;5588562;31;34211;-72
2023/09/19 00:28:06;;;;;;;11.85;4.75;;;;;;;22.15;100.00;99816.00;5588359;31;34153;-73
2023/09/19 00:31:09;;;;;;;15.55;5.30;;;;;;;22.17;100.00;99815.75;5588405;31;35715;-73
2023/09/19 00:34:13;;;;;;;15.45;4.90;;;;;;;22.13;100.00;99820.84;5588361;31;35511;-73
2023/09/19 00:37:17;;;;;;;16.17;5.03;;;;;;;22.11;100.00;99814.91;5588303;31;34214;-72
2023/09/19 00:40:20;;;;;;;14.40;5.47;;;;;;;21.96;100.00;99806.66;5588203;31;34009;-72
2023/09/19 00:43:24;;;;;;;10.60;4.80;;;;;;;21.94;100.00;99806.91;5590450;31;34056;-73
2023/09/19 00:46:28;;;;;;;17.17;5.37;;;;;;;21.90;100.00;99804.94;5590816;31;34300;-73
2023/09/19 00:49:32;;;;;;;19.30;5.75;;;;;;;21.91;100.00;99806.56;5590689;31;34136;-72
2023/09/19 00:52:38;;;;;;;14.35;5.43;;;;;;;21.91;100.00;99812.78;5590718;31;34122;-72
2023/09/19 00:55:42;;;;;;;14.25;5.18;;;;;;;21.92;100.00;99806.31;5590671;31;34078;-72
2023/09/19 00:58:47;;;;;;;13.35;5.62;;;;;;;21.84;100.00;99804.06;5577024;31;34209;-71
2023/09/19 01:01:53;;;;;;;17.73;5.12;;;;;;;21.86;100.00;99801.13;5589900;31;34769;-72
2023/09/19 01:04:57;;;;;;;16.67;5.28;;;;;;;21.88;100.00;99801.69;5590916;31;34127;-72
2023/09/19 01:08:00;;;;;;;9.82;4.80;;;;;;;21.91;100.00;99799.28;5590930;31;34746;-72
2023/09/19 01:11:29;;;;;;;12.35;5.30;;;;;;;21.75;100.00;99793.97;5590532;31;34207;-72
2023/09/19 01:14:57;;;;;;;13.82;5.75;;;;;;;21.67;100.00;99801.47;5582501;31;34842;-72
2023/09/19 01:18:07;;;;;;;13.40;5.45;;;;;;;21.62;100.00;99806.81;5589714;31;34030;-72
2023/09/19 01:21:48;;;;;;;12.30;5.43;;;;;;;21.58;100.00;99805.72;5590341;31;34041;-72
2023/09/19 01:25:25;;;;;;;14.10;5.72;;;;;;;21.54;100.00;99809.97;5590367;31;34034;-72
2023/09/19 01:28:57;;;;;;;12.85;5.43;;;;;;;21.47;100.00;99809.34;5590367;31;34861;-72
2023/09/19 01:32:04;;;;;;;14.20;5.50;;;;;;;21.55;100.00;99799.97;5590294;31;34214;-72
2023/09/19 01:35:12;;;;;;;15.30;6.03;;;;;;;21.48;100.00;99794.78;5590295;31;34229;-72
2023/09/19 01:38:15;;;;;;;10.88;5.18;;;;;;;21.48;100.00;99800.19;5590288;31;34000;-73
2023/09/19 01:41:27;;;;;;;18.30;5.50;;;;;;;21.45;100.00;99800.69;5589840;31;34050;-72
2023/09/19 01:45:05;;;;;;;12.77;5.35;;;;;;;21.41;100.00;99787.94;5590302;31;34781;-73
2023/09/19 01:48:47;;;;;;;10.20;5.50;;;;;;;21.42;100.00;99789.59;5557379;31;34831;-72
2023/09/19 01:52:07;;;;;;;16.08;6.25;;;;;;;21.32;100.00;99784.88;5590554;31;34030;-72
2023/09/19 01:55:14;;;;;;;13.65;5.90;;;;;;;21.26;100.00;99783.19;5589588;31;34800;-73
2023/09/19 01:58:32;;;;;;;16.20;6.30;;;;;;;21.22;100.00;99787.47;5589400;31;34644;-72
2023/09/19 02:01:37;;;;;;;13.55;6.47;;;;;;;21.14;100.00;99786.03;5590024;31;34098;-72
2023/09/19 02:04:40;;;;;;;13.10;5.80;;;;;;;21.00;100.00;99782.06;5590017;31;34770;-72
2023/09/19 02:07:43;;;;;;;12.18;5.78;;;;;;;21.05;100.00;99776.72;5589925;31;34056;-72
2023/09/19 02:10:48;;;;;;;17.42;5.75;;;;;;;21.00;100.00;99781.22;5589414;31;34160;-72
2023/09/19 02:13:54;;;;;;;16.42;6.28;;;;;;;21.07;100.00;99785.34;5590191;31;33987;-72
2023/09/19 02:16:57;;;;;;;16.62;6.28;;;;;;;21.04;100.00;99788.56;5590049;31;34135;-72
2023/09/19 02:20:07;;;;;;;12.18;6.57;;;;;;;21.19;100.00;99793.38;5589072;31;34059;-72
2023/09/19 02:23:11;;;;;;;13.50;6.15;;;;;;;21.20;100.00;99790.41;5589796;31;34047;-72
2023/09/19 02:26:13;;;;;;;12.50;6.40;;;;;;;21.26;100.00;99783.19;5589770;31;34759;-72
2023/09/19 02:29:17;;;;;;;19.48;6.60;;;;;;;21.25;100.00;99785.06;5589814;31;34208;-72
2023/09/19 02:32:19;;;;;;;13.52;6.28;;;;;;;21.32;100.00;99784.06;5589695;31;34059;-71
2023/09/19 02:35:23;;;;;;;11.12;6.20;;;;;;;21.38;100.00;99783.88;5589752;31;35105;-71
2023/09/19 02:38:26;;;;;;;20.62;6.47;;;;;;;21.26;100.00;99777.78;5589801;31;35172;-72
2023/09/19 02:41:29;;;;;;;16.42;6.53;;;;;;;21.23;100.00;99786.41;5589593;31;34094;-72
2023/09/19 02:44:32;;;;;;;19.77;6.47;;;;;;;21.21;100.00;99789.34;5589660;31;35319;-72
2023/09/19 02:47:35;;;;;;;15.25;6.80;;;;;;;21.12;100.00;99774.63;5589476;31;34337;-72
2023/09/19 02:50:40;;;;;;;15.07;6.43;;;;;;;21.03;100.00;99780.72;5588956;31;34041;-72
2023/09/19 02:53:44;;;;;;;8.23;6.50;;;;;;;20.98;100.00;99781.47;5589773;31;34060;-72
2023/09/19 02:56:47;;;;;;;16.52;7.55;;;;;;;20.89;100.00;99782.97;5589626;31;34065;-72
2023/09/19 02:59:50;;;;;;;15.13;6.82;;;;;;;20.87;100.00;99779.69;5589616;31;34231;-72
2023/09/19 03:02:55;;;;;;;13.25;7.03;;;;;;;20.89;100.00;99776.75;5589698;31;34854;-72
2023/09/19 03:05:58;;;;;;;14.38;6.82;;;;;;;20.79;100.00;99783.66;5588762;31;34783;-72
2023/09/19 03:09:02;;;;;;;11.85;6.45;;;;;;;20.89;100.00;99769.50;5589774;31;34126;-72
2023/09/19 03:12:08;;;;;;;18.62;6.57;;;;;;;20.85;100.00;99778.31;5589368;31;34118;-72
2023/09/19 03:15:11;;;;;;;16.08;7.72;;;;;;;20.85;100.00;99776.44;5588976;31;34030;-71
2023/09/19 03:18:14;;;;;;;17.00;6.95;;;;;;;20.74;100.00;99775.50;5589305;31;33901;-72
2023/09/19 03:21:19;;;;;;;10.18;6.82;;;;;;;20.73;100.00;99778.44;5589624;31;34022;-70
2023/09/19 03:24:23;;;;;;;14.95;7.03;;;;;;;20.70;100.00;99776.25;5589384;31;35555;-72
2023/09/19 03:27:27;;;;;;;17.27;7.40;;;;;;;20.73;100.00;99778.44;5589227;31;34164;-72
2023/09/19 03:30:29;;;;;;;15.13;7.37;;;;;;;20.77;100.00;99774.97;5589196;31;34080;-72
2023/09/19 03:33:33;;;;;;;17.35;7.07;;;;;;;20.68;100.00;99776.47;5589206;31;35050;-71
2023/09/19 03:36:37;;;;;;;17.80;7.32;;;;;;;20.65;100.00;99778.84;5589033;31;34180;-70
2023/09/19 03:39:40;;;;;;;12.90;6.93;;;;;;;20.71;100.00;99785.97;5589170;31;34033;-72
2023/09/19 03:42:43;;;;;;;14.68;7.55;;;;;;;20.61;100.00;99778.56;5589156;31;34730;-71
2023/09/19 03:45:46;;;;;;;13.52;7.40;;;;;;;20.59;100.00;99787.94;5589019;31;34015;-72
2023/09/19 03:48:50;;;;;;;19.62;7.78;;;;;;;20.60;100.00;99782.31;5588879;31;34056;-69
2023/09/19 03:51:53;;;;;;;17.87;8.13;;;;;;;20.66;100.00;99775.09;5588935;31;34068;-71
2023/09/19 03:54:55;;;;;;;15.93;7.70;;;;;;;20.72;100.00;99784.91;5588880;31;34747;-71
2023/09/19 03:57:59;;;;;;;20.52;7.30;;;;;;;20.78;100.00;99787.41;5589209;31;34728;-71
2023/09/19 04:01:02;;;;;;;19.35;7.22;;;;;;;20.71;100.00;99783.25;5588031;31;34022;-71
2023/09/19 04:04:08;;;;;;;17.52;7.05;;;;;;;20.72;100.00;99793.78;5588784;31;34198;-71
2023/09/19 04:07:13;;;;;;;22.98;7.80;;;;;;;20.83;100.00;99797.44;5588814;31;34089;-71
2023/09/19 04:10:17;;;;;;;14.68;7.28;;;;;;;20.92;100.00;99800.53;5588517;31;34144;-70
2023/09/19 04:13:20;;;;;;;15.18;7.00;;;;;;;21.01;100.00;99802.53;5588527;31;34844;-71
2023/09/19 04:16:23;;;;;;;16.20;6.93;;;;;;;21.09;100.00;99798.59;5590698;31;34059;-70
2023/09/19 04:19:26;;;;;;;19.85;7.97;;;;;;;21.11;100.00;99793.75;5595045;31;34119;-72
2023/09/19 04:22:29;;;;;;;15.73;6.10;;;;;;;21.18;100.00;99802.53;5594978;31;34042;-70
2023/09/19 04:25:32;;;;;;;17.73;6.43;;;;;;;21.19;100.00;99802.28;5594884;31;34351;-72
2023/09/19 04:28:38;;;;;;;14.85;5.75;;;;;;;21.30;100.00;99814.00;5594995;31;34096;-72
2023/09/19 04:31:43;;;;;;;12.27;4.82;;;;;;;21.22;100.00;99809.03;5594768;31;34197;-72
2023/09/19 04:34:49;;;;;;;15.48;5.43;;;;;;;21.14;100.00;99812.19;5594696;31;34062;-70
2023/09/19 04:37:52;;;;;;;12.23;4.32;;;;;;;21.11;100.00;99815.34;5594791;31;35102;-71
2023/09/19 04:40:59;;;;;;;11.40;4.40;;;;;;;21.09;100.00;99823.69;5594436;31;35060;-72
2023/09/19 04:44:01;;;;;;;8.80;3.80;;;;;;;21.10;100.00;99830.72;5594582;31;34131;-72
2023/09/19 04:47:05;;;;;;;11.50;3.67;;;;;;;21.13;100.00;99832.09;5594423;31;34042;-72
2023/09/19 04:50:13;;;;;;;10.68;3.40;;;;;;;21.15;100.00;99838.09;5594523;31;35065;-72
2023/09/19 04:53:20;;;;;;;9.15;3.17;;;;;;;21.14;100.00;99841.87;5594440;31;34043;-72
2023/09/19 04:56:24;;;;;;;9.50;2.42;;;;;;;21.16;100.00;99842.41;5594779;31;34085;-72
2023/09/19 04:59:28;;;;;;;6.22;2.60;;;;;;;21.12;100.00;99841.25;5594274;31;33628;-70
2023/09/19 05:02:31;;;;;;;7.40;2.22;;;;;;;21.14;100.00;99847.25;5594209;31;34871;-70
2023/09/19 05:05:34;;;;;;;11.05;2.30;;;;;;;21.05;100.00;99843.31;5594035;31;34456;-71
2023/09/19 05:08:38;;;;;;;7.10;1.75;;;;;;;21.07;100.00;99839.31;5594092;31;34100;-71
2023/09/19 05:11:41;;;;;;;9.00;1.90;;;;;;;20.97;100.00;99844.56;5594339;31;34192;-72
2023/09/19 05:14:44;;;;;;;5.50;1.25;;;;;;;20.92;100.00;99855.25;5593822;31;34234;-71
2023/09/19 05:17:51;;;;;;;4.28;1.12;;;;;;;20.87;100.00;99865.97;5594023;31;34408;-71
2023/09/19 05:21:02;;;;;;;4.12;1.08;;;;;;;20.65;100.00;99868.62;5593765;31;34826;-72
2023/09/19 05:24:06;;;;;;;3.58;1.10;;;;;;;20.41;100.00;99880.63;5593433;31;34257;-72
2023/09/19 05:27:12;;;;;;;2.97;0.90;;;;;;;20.43;100.00;99875.78;5592988;31;35075;-72
2023/09/19 05:30:15;;;;;;;3.60;0.80;;;;;;;20.22;100.00;99896.16;5590074;31;34107;-72
2023/09/19 05:33:18;;;;;;;6.37;1.35;;;;;;;20.08;100.00;99902.09;5590077;31;34128;-72
2023/09/19 05:36:21;;;;;;;3.33;0.70;;;;;;;19.87;100.00;99893.63;5589767;31;34197;-71
2023/09/19 05:39:24;;;;;;;5.75;0.75;;;;;;;19.75;100.00;99900.91;5589663;31;34180;-71
2023/09/19 05:42:27;;;;;;;2.03;0.70;;;;;;;19.82;100.00;99907.00;5589685;31;32828;-71
2023/09/19 05:45:30;;;;;;;7.12;1.12;;;;;;;19.70;100.00;99900.00;5589834;31;34195;-72
2023/09/19 05:48:34;;;;;;;1.98;0.60;;;;;;;19.57;100.00;99905.66;5590915;31;34073;-71
2023/09/19 05:51:37;;;;;;;3.40;0.95;;;;;;;19.44;100.00;99904.88;5589505;31;34265;-72
2023/09/19 05:54:39;;;;;;;3.33;0.80;;;;;;;19.34;100.00;99901.94;5588948;31;34256;-73
2023/09/19 05:57:42;;;;;;;2.83;0.70;;;;;;;19.32;100.00;99901.34;5589916;31;34395;-73
2023/09/19 06:00:47;;;;;;;3.03;0.60;;;;;;;19.45;100.00;99914.59;5589564;31;34254;-71
2023/09/19 06:03:50;;;;;;;2.62;0.80;;;;;;;19.14;100.00;99914.91;5589386;31;34266;-72
2023/09/19 06:06:53;;;;;;;2.70;0.90;;;;;;;19.07;100.00;99908.87;5589682;31;32710;-71
2023/09/19 06:09:56;;;;;;;2.45;0.80;;;;;;;19.05;100.00;99916.34;5589603;31;34124;-72
2023/09/19 06:12:59;;;;;;;3.37;0.80;;;;;;;19.08;100.00;99918.53;5588660;31;34980;-71
2023/09/19 06:16:05;;;;;;;2.72;0.88;;;;;;;18.95;100.00;99919.59;5589478;31;34223;-71
2023/09/19 06:19:09;;;;;;;1.77;1.00;;;;;;;18.92;100.00;99924.63;5589546;31;34189;-71
2023/09/19 06:22:18;;;;;;;3.25;0.82;;;;;;;18.55;100.00;99932.03;5589566;31;34414;-71
2023/09/19 06:25:21;;;;;;;4.50;0.90;;;;;;;18.25;100.00;99927.50;5589078;31;34163;-71
2023/09/19 06:28:27;;;;;;;3.25;0.90;;;;;;;18.23;100.00;99932.28;5589327;31;34143;-71
2023/09/19 06:31:31;;;;;;;3.28;0.77;;;;;;;18.25;100.00;99937.41;5589656;31;34443;-71
2023/09/19 06:34:34;;;;;;;2.08;0.88;;;;;;;18.33;100.00;99936.28;5589241;31;34843;-71
2023/09/19 06:37:41;;;;;;;2.08;0.65;;;;;;;18.33;100.00;99945.16;5588315;31;34961;-71
2023/09/19 06:40:44;;;;;;;2.28;0.82;;;;;;;18.33;100.00;99950.53;5588989;31;34778;-71
2023/09/19 06:43:48;;;;;;;6.22;0.85;;;;;;;18.46;100.00;99949.50;5589111;31;34134;-71
2023/09/19 06:46:51;;;;;;;3.03;0.80;;;;;;;18.52;100.00;99954.78;5588363;31;35144;-71
2023/09/19 06:49:54;;;;;;;3.00;0.75;;;;;;;18.49;100.00;99957.13;5589260;31;34142;-71
2023/09/19 06:53:00;;;;;;;1.75;0.90;;;;;;;18.40;100.00;99958.47;5589257;31;34111;-72
2023/09/19 06:56:03;;;;;;;2.95;1.05;;;;;;;18.20;100.00;99954.22;5588956;31;34114;-71
2023/09/19 06:59:09;;;;;;;2.80;0.77;;;;;;;18.09;100.00;99968.41;5589618;31;34835;-72
2023/09/19 07:02:13;;;;;;;1.42;0.77;;;;;;;18.27;100.00;99974.78;5589175;31;34306;-71
2023/09/19 07:05:18;;;;;;;2.10;0.93;;;;;;;18.13;100.00;99968.78;5589365;31;33997;-71
2023/09/19 07:08:21;;;;;;;2.87;0.95;;;;;;;18.16;100.00;99966.44;5589804;31;34172;-72
2023/09/19 07:11:25;;;;;;;2.53;0.70;;;;;;;18.21;100.00;99980.00;5589374;31;34028;-72
2023/09/19 07:14:30;;;;;;;1.55;0.65;;;;;;;18.20;100.00;99983.75;5589229;31;34354;-72
2023/09/19 07:17:33;;;;;;;1.50;0.70;;;;;;;18.11;100.00;99995.84;5589221;31;34775;-72
2023/09/19 07:20:36;;;;;;;1.02;0.62;;;;;;;18.04;100.00;99996.97;5589482;31;34055;-72
2023/09/19 07:23:39;;;;;;;2.33;0.90;;;;;;;18.20;100.00;100005.22;5575905;31;34231;-72
2023/09/19 07:26:43;;;;;;;1.40;0.60;;;;;;;18.09;100.00;99994.44;5589312;31;34046;-72
2023/09/19 07:29:46;;;;;;;3.15;0.93;;;;;;;18.08;100.00;100000.84;5589081;31;34441;-70
2023/09/19 07:32:53;;;;;;;2.35;1.02;;;;;;;18.14;100.00;100003.47;5589224;31;34482;-72
2023/09/19 07:35:56;;;;;;;4.70;0.80;;;;;;;18.14;100.00;100010.69;5589517;31;34185;-70
2023/09/19 07:39:06;;;;;;;2.65;0.80;;;;;;;18.07;100.00;100002.72;5589166;31;34686;-72
2023/09/19 07:42:17;;;;;;;4.62;0.90;;;;;;;18.10;100.00;100012.19;5588918;31;34844;-71
2023/09/19 07:45:20;;;;;;;4.78;1.05;;;;;;;18.10;100.00;100014.88;5588972;31;34337;-74
2023/09/19 07:48:24;;;;;;;3.58;1.30;;;;;;;17.78;100.00;100012.34;5588794;31;35260;-74
2023/09/19 07:51:27;;;;;;;2.30;1.10;;;;;;;17.29;100.00;100020.44;5587791;31;34717;-74
2023/09/19 07:54:35;;;;;;;3.58;1.10;;;;;;;17.03;100.00;100026.87;5588425;31;34770;-74
2023/09/19 07:57:38;;;;;;;3.67;1.17;;;;;;;17.03;100.00;100028.72;5588805;31;34409;-73
2023/09/19 08:00:41;;;;;;;4.25;1.30;;;;;;;16.95;100.00;100033.28;5588840;31;35172;-73
2023/09/19 08:03:45;;;;;;;4.00;1.27;;;;;;;17.02;100.00;100041.28;5588811;31;34017;-73
2023/09/19 08:06:48;;;;;;;1.98;1.30;;;;;;;17.04;100.00;100041.09;5588124;31;34096;-73
2023/09/19 08:09:51;;;;;;;3.00;1.20;;;;;;;17.07;100.00;100048.69;5588686;31;34024;-72
2023/09/19 08:12:57;;;;;;;6.07;4.10;;;;;;;17.10;100.00;100043.69;5588615;31;34863;-71
2023/09/19 08:16:00;;;;;;;5.30;1.40;;;;;;;17.16;100.00;100050.03;5588587;31;34906;-72
2023/09/19 08:19:03;;;;;;;2.58;1.40;;;;;;;17.10;100.00;100061.63;5588775;31;34064;-74
2023/09/19 08:22:06;;;;;;;3.12;1.42;;;;;;;17.13;100.00;100067.41;5588433;31;34090;-74
2023/09/19 08:25:09;;;;;;;4.18;1.12;;;;;;;17.11;100.00;100077.50;5588583;31;34795;-73
2023/09/19 08:28:14;;;;;;;4.55;1.33;;;;;;;17.14;100.00;100084.28;5588740;31;34838;-72
2023/09/19 08:31:17;;;;;;;3.35;1.60;;;;;;;17.16;100.00;100088.41;5588302;31;34796;-72
2023/09/19 08:34:21;;;;;;;2.90;1.30;;;;;;;17.18;100.00;100096.22;5588311;31;34829;-71
2023/09/19 08:37:24;;;;;;;3.47;1.20;;;;;;;17.13;100.00;100093.38;5588246;31;34297;-72
2023/09/19 08:40:28;;;;;;;4.90;1.35;;;;;;;17.22;100.00;100092.91;5588087;31;34812;-72
2023/09/19 08:43:34;;;;;;;2.47;1.10;;;;;;;17.23;100.00;100093.72;5588113;31;34921;-73
2023/09/19 08:46:41;;;;;;;4.15;1.20;;;;;;;17.26;100.00;100107.50;5587976;31;34131;-73
2023/09/19 08:49:50;;;;;;;2.20;1.15;;;;;;;17.24;100.00;100114.94;5588076;31;34257;-72
2023/09/19 08:52:56;;;;;;;3.83;1.25;;;;;;;17.35;100.00;100124.13;5587886;31;34215;-72
2023/09/19 08:56:01;;;;;;;3.47;1.50;;;;;;;17.34;100.00;100125.16;5588139;31;34006;-71
2023/09/19 08:59:09;;;;;;;3.15;1.48;;;;;;;17.43;100.00;100139.16;5587902;31;34293;-72
2023/09/19 09:02:14;;;;;;;4.43;1.27;;;;;;;17.48;100.00;100144.66;5588173;31;34940;-74
2023/09/19 09:05:22;;;;;;;2.87;1.33;;;;;;;17.47;100.00;100149.22;5590883;31;32838;-71
2023/09/19 09:08:26;;;;;;;4.80;1.58;;;;;;;17.60;100.00;100153.69;5590365;31;35078;-75
2023/09/19 09:11:33;;;;;;;3.67;1.33;;;;;;;17.58;100.00;100147.69;5590523;31;35503;-76
2023/09/19 09:14:36;;;;;;;4.80;1.48;;;;;;;17.58;100.00;100142.31;5590349;31;34133;-76
2023/09/19 09:17:39;;;;;;;5.15;1.40;;;;;;;17.73;100.00;100124.87;5590304;31;35156;-76
2023/09/19 09:20:44;;;;;;;2.92;1.20;;;;;;;17.88;100.00;100103.06;5590696;31;34158;-75
2023/09/19 09:23:49;;;;;;;2.80;1.60;;;;;;;18.23;100.00;100093.41;5590259;31;34268;-75
2023/09/19 09:26:53;;;;;;;4.12;1.33;;;;;;;18.58;100.00;100114.28;5590426;31;34218;-75
2023/09/19 09:29:56;;;;;;;3.50;1.30;;;;;;;18.81;100.00;100111.69;5590691;31;34128;-75
2023/09/19 09:33:10;;;;;;;4.05;1.25;;;;;;;18.80;100.00;100102.00;5590515;31;34081;-75
2023/09/19 09:36:15;;;;;;;3.30;1.20;;;;;;;18.79;100.00;100094.97;5590184;31;34149;-75
2023/09/19 09:39:31;;;;;;;2.95;1.35;;;;;;;18.67;100.00;100078.81;5590251;31;34306;-77
2023/09/19 09:42:38;;;;;;;2.83;1.25;;;;;;;18.17;100.00;100071.97;5592318;31;34725;-74
2023/09/19 09:45:48;;;;;;;3.37;1.20;;;;;;;18.05;100.00;100074.63;5580544;31;34332;-78
2023/09/19 09:49:25;;;;;;;3.37;1.50;;;;;;;17.66;100.00;100096.47;5592730;31;33960;-73
2023/09/19 09:52:44;;;;;;;3.15;1.25;;;;;;;17.51;100.00;100083.38;5581678;31;34064;-73
2023/09/19 09:56:06;;;;;;;3.42;1.20;;;;;;;17.55;100.00;100089.13;5592810;31;35662;-75
2023/09/19 09:59:09;;;;;;;3.97;1.42;;;;;;;17.63;100.00;100107.63;5590034;31;33361;-72
2023/09/19 10:02:29;;;;;;;4.12;1.55;;;;;;;17.75;100.00;100125.50;5589662;31;34576;-74
2023/09/19 10:05:40;;;;;;;2.40;1.30;;;;;;;17.77;100.00;100125.25;5589813;31;34088;-72
2023/09/19 10:09:29;;;;;;;3.55;1.37;;;;;;;17.87;100.00;100122.06;5589941;31;34132;-72
2023/09/19 10:12:38;;;;;;;3.67;1.50;;;;;;;17.99;100.00;100117.63;5589585;31;34126;-76
2023/09/19 10:15:52;;;;;;;5.03;1.37;;;;;;;18.27;100.00;100117.09;5588952;31;34724;-71
2023/09/19 10:18:59;;;;;;;3.55;1.42;;;;;;;18.37;100.00;100120.09;5589719;31;34149;-71
2023/09/19 10:22:04;;;;;;;3.67;1.30;;;;;;;18.87;100.00;100115.34;5589708;31;34815;-71
2023/09/19 10:25:09;;;;;;;2.42;1.30;;;;;;;19.22;100.00;100118.94;5588769;31;33650;-71
2023/09/19 10:28:13;;;;;;;3.35;1.30;;;;;;;19.82;100.00;100125.03;5589591;31;34038;-71
2023/09/19 10:31:21;;;;;;;3.30;1.37;;;;;;;20.36;100.00;100123.84;5589693;31;34034;-71
2023/09/19 10:34:25;;;;;;;2.53;1.40;;;;;;;20.37;100.00;100127.34;5589428;31;33996;-71
2023/09/19 10:37:32;;;;;;;5.00;1.55;;;;;;;21.03;100.00;100129.47;5589566;31;34020;-71
2023/09/19 10:40:40;;;;;;;4.20;1.15;;;;;;;20.67;100.00;100141.44;5588766;31;33261;-71
2023/09/19 10:43:48;;;;;;;2.97;1.23;;;;;;;20.90;100.00;100137.03;5589408;31;34146;-71
2023/09/19 10:46:53;;;;;;;2.85;1.20;;;;;;;21.09;100.00;100149.25;5589284;31;34171;-71
2023/09/19 10:49:58;;;;;;;2.33;1.27;;;;;;;20.57;100.00;100135.87;5589336;31;35141;-73
2023/09/19 10:53:08;;;;;;;3.40;1.30;;;;;;;20.64;100.00;100151.88;5588769;31;34427;-71
2023/09/19 10:56:21;;;;;;;1.87;1.23;;;;;;;20.41;100.00;100143.84;5589018;31;34133;-71
2023/09/19 10:59:26;;;;;;;5.35;1.40;;;;;;;20.43;100.00;100139.84;5590538;31;34263;-69
2023/09/19 11:02:29;;;;;;;4.93;1.35;;;;;;;20.59;100.00;100151.78;5591160;31;34757;-71
2023/09/19 11:05:33;;;;;;;3.97;1.33;;;;;;;20.38;100.00;100153.25;5589324;31;34759;-72
2023/09/19 11:09:04;;;;;;;3.35;1.33;;;;;;;20.51;100.00;100149.47;5589290;31;34055;-71
2023/09/19 11:12:07;;;;;;;6.57;1.40;;;;;;;20.74;100.00;100162.87;5589185;31;35635;-70
2023/09/19 11:15:13;;;;;;;3.95;1.30;;;;;;;20.75;100.00;100165.34;5589688;31;34158;-70
2023/09/19 11:18:42;;;;;;;3.83;1.40;;;;;;;20.89;100.00;100173.97;5589442;31;34164;-71
2023/09/19 11:21:55;;;;;;;2.03;1.00;;;;;;;21.94;100.00;100174.22;5589390;31;34863;-72
2023/09/19 11:25:37;;;;;;;3.08;1.20;;;;;;;24.15;100.00;100176.16;5588385;31;33985;-72
2023/09/19 11:28:41;;;;;;;2.22;1.10;;;;;;;27.97;87.65;100183.31;5588916;31;34279;-74
2023/09/19 11:31:44;;;;;;;2.47;1.02;;;;;;;30.78;59.04;100180.50;5588957;31;34137;-75
2023/09/19 11:34:50;;;;;;;3.12;1.25;;;;;;;29.77;63.25;100185.91;5589222;31;34202;-73
2023/09/19 11:37:53;;;;;;;3.17;1.20;;;;;;;29.73;58.11;100181.34;5589226;31;33950;-72
2023/09/19 11:41:19;;;;;;;1.70;0.90;;;;;;;29.92;55.62;100167.69;5589070;31;35615;-74
2023/09/19 11:44:26;;;;;;;2.67;0.95;;;;;;;33.12;49.87;100181.59;5581166;31;34321;-72
2023/09/19 11:47:29;;;;;;;2.10;1.00;;;;;;;29.74;51.83;100164.66;5588780;31;34122;-74
2023/09/19 11:50:34;;;;;;;3.55;0.90;;;;;;;32.03;48.02;100166.06;5588711;31;34089;-75
2023/09/19 11:53:39;;;;;;;1.55;0.90;;;;;;;31.79;46.32;100159.00;5588887;31;35532;-72
2023/09/19 11:56:45;;;;;;;4.28;1.20;;;;;;;27.48;57.68;100150.75;5588672;31;34200;-74
2023/09/19 11:59:49;;;;;;;4.00;0.90;;;;;;;26.91;67.13;100140.50;5588810;31;35172;-73
2023/09/19 12:02:56;;;;;;;3.60;0.90;;;;;;;27.75;61.79;100133.09;5588669;31;34766;-74
2023/09/19 12:06:02;;;;;;;2.45;1.00;;;;;;;28.36;56.78;100134.12;5588585;31;36194;-72
2023/09/19 12:09:10;;;;;;;3.12;1.10;;;;;;;28.02;58.41;100141.56;5588617;31;34088;-75
2023/09/19 12:12:20;;;;;;;1.97;0.70;;;;;;;28.69;56.22;100134.25;5587302;31;34476;-73
2023/09/19 12:15:28;;;;;;;3.65;1.08;;;;;;;31.34;47.78;100140.91;5588435;31;35184;-74
2023/09/19 12:18:33;;;;;;;3.92;0.90;;;;;;;29.94;51.28;100144.38;5588500;31;34040;-73
2023/09/19 12:21:37;;;;;;;2.75;0.90;;;;;;;29.44;53.60;100150.66;5587620;31;34019;-74
2023/09/19 12:24:44;;;;;;;3.60;1.10;;;;;;;27.94;59.00;100144.88;5588240;31;35141;-72
2023/09/19 12:27:49;;;;;;;3.17;1.15;;;;;;;27.04;64.98;100148.06;5588279;31;34212;-73
2023/09/19 12:30:55;;;;;;;1.70;1.05;;;;;;;27.12;66.53;100146.63;5588222;31;34145;-73
2023/09/19 12:34:01;;;;;;;2.50;1.00;;;;;;;27.92;62.55;100147.09;5588065;31;34174;-74
2023/09/19 12:37:27;;;;;;;4.95;1.40;;;;;;;29.88;55.47;100153.75;5587736;31;34151;-74
2023/09/19 12:40:33;;;;;;;9.55;1.23;;;;;;;28.58;57.83;100162.75;5590733;31;34369;-72
2023/09/19 12:43:39;;;;;;;2.75;1.00;;;;;;;28.33;57.80;100169.31;5590615;31;35148;-72
2023/09/19 12:46:43;;;;;;;6.12;1.20;;;;;;;28.28;57.44;100178.38;5590491;31;34249;-74
2023/09/19 12:50:25;;;;;;;2.53;1.20;;;;;;;27.87;57.65;100177.97;5590486;31;34576;-74
2023/09/19 12:53:29;;;;;;;2.92;1.50;;;;;;;27.57;61.73;100159.97;5590850;31;33991;-73
2023/09/19 12:56:44;;;;;;;2.87;1.20;;;;;;;29.57;53.60;100169.88;5590688;31;34110;-74
2023/09/19 12:59:52;;;;;;;3.22;1.15;;;;;;;30.89;51.16;100172.87;5590618;31;34150;-74
2023/09/19 13:03:21;;;;;;;2.73;1.17;;;;;;;32.01;46.37;100174.59;5590594;31;33404;-73
2023/09/19 13:06:38;;;;;;;2.97;1.12;;;;;;;32.68;45.45;100172.47;5590537;31;34201;-75
2023/09/19 13:10:04;;;;;;;4.05;1.30;;;;;;;34.53;40.10;100173.28;5590523;31;34141;-74
2023/09/19 13:13:25;;;;;;;2.67;1.00;;;;;;;32.38;43.87;100165.13;5590574;31;34114;-74
2023/09/19 13:16:28;;;;;;;2.20;1.10;;;;;;;31.88;46.47;100156.28;5589637;31;34113;-72
2023/09/19 13:19:54;;;;;;;4.15;1.30;;;;;;;34.71;39.91;100174.03;5590300;31;34998;-74
2023/09/19 13:22:59;;;;;;;2.70;1.35;;;;;;;34.08;42.18;100163.91;5590294;31;34773;-71
2023/09/19 13:26:04;;;;;;;5.85;1.50;;;;;;;33.29;42.35;100167.91;5590165;31;34816;-73
2023/09/19 13:29:07;;;;;;;3.55;1.27;;;;;;;30.30;48.42;100158.19;5589894;31;34853;-75
2023/09/19 13:32:11;;;;;;;2.20;1.23;;;;;;;32.57;43.44;100154.69;5590044;31;34758;-74
2023/09/19 13:35:15;;;;;;;4.15;1.23;;;;;;;31.17;44.92;100159.97;5589757;31;34775;-72
2023/09/19 13:38:21;;;;;;;3.55;1.40;;;;;;;32.10;45.34;100167.22;5589165;31;34053;-74
2023/09/19 13:41:25;;;;;;;6.22;1.40;;;;;;;31.22;45.20;100162.59;5589764;31;34012;-72
2023/09/19 13:44:28;;;;;;;2.78;1.20;;;;;;;34.36;40.42;100196.22;5590129;31;34790;-74
2023/09/19 13:47:33;;;;;;;4.47;1.30;;;;;;;31.79;43.28;100167.22;5589392;31;34084;-73
2023/09/19 13:50:39;;;;;;;3.80;1.20;;;;;;;32.95;40.64;100176.91;5588574;31;34579;-73
2023/09/19 13:53:42;;;;;;;3.33;1.15;;;;;;;34.43;38.25;100185.47;5589281;31;34391;-74
2023/09/19 13:56:44;;;;;;;3.62;1.25;;;;;;;34.43;38.49;100182.72;5588261;31;34691;-74
2023/09/19 13:59:47;;;;;;;4.43;1.40;;;;;;;31.55;43.13;100188.66;5589300;31;34027;-74
2023/09/19 14:02:50;;;;;;;3.15;1.33;;;;;;;30.15;46.36;100189.41;5589012;31;34329;-73
2023/09/19 14:05:55;;;;;;;4.37;1.37;;;;;;;30.18;46.85;100179.75;5588422;31;32844;-73
2023/09/19 14:08:57;;;;;;;9.40;1.45;;;;;;;29.67;48.13;100182.56;5589157;31;34280;-73
2023/09/19 14:12:01;;;;;;;3.75;1.40;;;;;;;28.65;52.12;100177.69;5589382;31;33994;-72
2023/09/19 14:15:04;;;;;;;5.35;1.55;;;;;;;26.78;57.10;100193.59;5589541;31;34990;-73
2023/09/19 14:18:08;;;;;;;8.90;1.30;;;;;;;25.52;69.31;100185.63;5588992;31;34397;-72
2023/09/19 14:21:11;;;;;;;3.17;1.23;;;;;;;24.56;82.78;100175.31;5589126;31;34359;-72